Etusivu
METAR-TAF:

METAR-TAF

Lentoasemat :

Kölnin

Köln, Saksa

Leveyspiiri: 50-52N, Pituuspiiri: 007-10E, korkeus merenpinnasta: 91 m

Tämänhetkinen sää

Tämä raportti tehtiin 29 minuuttia sitten, kello 04.20 UTC
Tuuli 4 kn idästä/kaakosta
Lämpötila 2°C
Kosteus 55%
Ilmanpaine 1037 hPa
Näkyvyys 10 km tai enemmän
ei pilviä alle 1500 m:ssä eikä cumulonimbus-pilviä

METAR: EDDK 240420Z 12004KT CAVOK 02/M06 Q1037 NOSIG

Aika: 05:49 (04:49 UTC)

Sääennuste

Tämä raportti tehtiin 5 tuntia ja 49 minuuttia sitten, kello 23.00 UTC
Ennuste voimassa 24. päivästä klo 00 UTC - 25. päivään klo 06 UTC
Tuuli 6 kn idästä/kaakosta
Näkyvyys 10 km tai enemmän
ei pilviä alle 1500 m:ssä eikä cumulonimbus-pilviä
Tulossa
24. päivästä klo 20 UTC - 24. päivään klo 22 UTC
Tuuli 3 kn eri suunnista

TAF: EDDK 232300Z 2400/2506 12006KT CAVOK BECMG 2420/2422 VRB03KT

Säähavainnot ja -ennusteet yli 4000 lentoasemalta (METAR- ja TAF-raportit).

Käytössä olevat sääasemat on merkitty karttaan keltaisilla ja punaisilla pisteillä.

Aseta hiiri pisteen päälle nähdäksesi sääaseman nimen.

Klikkaa sitten nähdäksesi säähavainnot ja -ennusteet.

Kartan vaihtaminen: klikkaa mustalla rastilla varustettuja vihreitä pisteitä, niin voit zoomata sisään; viivalla varustettua vihreää pistettä, niin voit zoomata ulos tai vihreitä nuolia, niin pääset viereisille kartoille.


METAR-TAF: